Terminal Aerodrome Forecast
Issued by NWS

Home | Current Version | Previous Version | Text Only | Print | Product List | Glossary On
Versions: 1 2 3 4 5 6 7 8 9 10 11 12 13 14 15 16 17 18 19 20 21
000
FTAK31 PANC 271724
TAFACD
TAF
PACD 271724Z 2718/2818 26015KT 2SM BR BKN004 OVC008
     FM272100 29011KT P6SM BKN008
     FM280600 27005KT P6SM SCT008 BKN015
     FM281200 VRB04KT P6SM SCT003 OVC005=

USA.gov is the U.S. government's official web portal to all federal, state and local government web resources and services.